Time;durP1;ratioP1;P1;durP2;ratioP2;P2;SDS_P1;SDS_P2;PMS_P1;PMS_P2;Temp;Humidity;BMP_temperature;BMP_pressure;BME280_temperature;BME280_humidity;BME280_pressure;Samples;Min_cycle;Max_cycle;Signal;HPM_P1;HPM_P2
2024/01/21 00:00:47;;;;;;;15.55;8.00;;;2.90;86.20;;;;;;4999172;28;20130;-76
2024/01/21 00:03:12;;;;;;;14.20;7.97;;;3.00;86.20;;;;;;4999476;28;20467;-75
2024/01/21 00:05:38;;;;;;;13.88;8.00;;;2.90;85.90;;;;;;4982844;28;20034;-76
2024/01/21 00:08:04;;;;;;;15.45;8.60;;;3.00;86.10;;;;;;4982378;28;20030;-76
2024/01/21 00:10:29;;;;;;;14.63;8.18;;;2.90;86.30;;;;;;4982380;28;20033;-75
2024/01/21 00:12:55;;;;;;;12.68;7.38;;;2.90;86.50;;;;;;4998816;28;20485;-76
2024/01/21 00:15:22;;;;;;;15.82;8.10;;;2.90;86.70;;;;;;4982558;28;20116;-75
2024/01/21 00:17:48;;;;;;;13.90;7.93;;;2.90;86.70;;;;;;4999618;28;20034;-75
2024/01/21 00:20:14;;;;;;;11.88;7.60;;;2.90;86.70;;;;;;4998929;28;20536;-75
2024/01/21 00:22:40;;;;;;;15.95;7.88;;;2.90;86.70;;;;;;5015970;28;20049;-76
2024/01/21 00:25:09;;;;;;;15.23;8.38;;;3.00;86.90;;;;;;5016297;28;20018;-75
2024/01/21 00:27:36;;;;;;;13.98;7.78;;;3.00;86.40;;;;;;4999323;28;20041;-76
2024/01/21 00:30:05;;;;;;;13.45;7.13;;;3.00;86.50;;;;;;4998326;28;20030;-76
2024/01/21 00:32:30;;;;;;;13.77;7.63;;;3.00;86.40;;;;;;5016002;28;20026;-75
2024/01/21 00:34:56;;;;;;;12.65;7.47;;;3.00;85.40;;;;;;4982015;28;20359;-75
2024/01/21 00:37:21;;;;;;;12.82;7.63;;;3.00;85.60;;;;;;5016530;28;20049;-76
2024/01/21 00:39:47;;;;;;;13.00;6.95;;;2.90;85.50;;;;;;4997114;28;20032;-76
2024/01/21 00:42:13;;;;;;;12.70;7.15;;;2.80;85.40;;;;;;4998402;28;20101;-76
2024/01/21 00:44:38;;;;;;;11.30;6.85;;;2.80;85.30;;;;;;5015547;28;20029;-76
2024/01/21 00:47:04;;;;;;;12.35;6.50;;;2.80;85.20;;;;;;4982081;28;20069;-76
2024/01/21 00:49:30;;;;;;;13.13;7.45;;;2.80;84.70;;;;;;4998567;28;20034;-76
2024/01/21 00:51:59;;;;;;;11.10;6.25;;;2.80;84.70;;;;;;4998256;28;20368;-75
2024/01/21 00:54:24;;;;;;;11.50;6.70;;;2.80;84.50;;;;;;4998070;28;20029;-75
2024/01/21 00:56:50;;;;;;;13.52;7.07;;;2.70;84.90;;;;;;5015479;28;20034;-75
2024/01/21 00:59:16;;;;;;;11.13;6.97;;;2.70;85.10;;;;;;4998381;28;20033;-75
2024/01/21 01:01:41;;;;;;;11.35;6.65;;;2.70;85.40;;;;;;5016008;28;20034;-76
2024/01/21 01:04:07;;;;;;;13.00;6.80;;;2.70;85.10;;;;;;4981515;28;20029;-76
2024/01/21 01:06:33;;;;;;;10.98;6.47;;;2.70;84.80;;;;;;4998065;28;20348;-75
2024/01/21 01:08:59;;;;;;;11.55;6.82;;;2.70;84.80;;;;;;4998564;28;20048;-75
2024/01/21 01:11:25;;;;;;;10.93;6.63;;;2.70;85.00;;;;;;4981639;28;20484;-76
2024/01/21 01:13:51;;;;;;;11.23;6.45;;;2.70;85.20;;;;;;5015082;28;20433;-75
2024/01/21 01:16:17;;;;;;;12.70;6.32;;;2.80;85.20;;;;;;4994055;28;20491;-76
2024/01/21 01:18:43;;;;;;;11.18;6.28;;;2.80;85.10;;;;;;4994370;28;20111;-76
2024/01/21 01:21:12;;;;;;;11.00;6.13;;;2.90;85.20;;;;;;4978199;28;20538;-75
2024/01/21 01:23:38;;;;;;;11.77;6.97;;;2.90;85.20;;;;;;4978465;28;20093;-75
2024/01/21 01:26:06;;;;;;;10.95;6.30;;;2.90;84.90;;;;;;4994180;28;20041;-76
2024/01/21 01:28:31;;;;;;;11.20;6.78;;;2.90;85.00;;;;;;4995106;28;20049;-76
2024/01/21 01:30:57;;;;;;;13.73;6.70;;;2.90;84.70;;;;;;4994006;28;20478;-75
2024/01/21 01:33:24;;;;;;;10.80;7.05;;;2.80;85.00;;;;;;4995131;28;20483;-75
2024/01/21 01:35:49;;;;;;;10.45;6.30;;;2.80;85.00;;;;;;4977739;28;20437;-75
2024/01/21 01:38:16;;;;;;;13.43;6.68;;;2.80;85.10;;;;;;4977944;28;20061;-75
2024/01/21 01:40:41;;;;;;;11.45;6.85;;;2.80;85.20;;;;;;4993825;28;20037;-76
2024/01/21 01:43:07;;;;;;;13.45;6.53;;;2.80;85.20;;;;;;4995178;28;20374;-76
2024/01/21 01:45:32;;;;;;;12.00;6.57;;;2.90;85.40;;;;;;4993817;28;20033;-76
2024/01/21 01:47:58;;;;;;;10.95;6.65;;;2.80;85.20;;;;;;4993961;28;20430;-75
2024/01/21 01:50:25;;;;;;;10.48;6.22;;;2.80;85.10;;;;;;4995219;28;20356;-76
2024/01/21 01:52:52;;;;;;;14.90;7.28;;;2.80;85.00;;;;;;4994780;28;20460;-75
2024/01/21 01:55:18;;;;;;;11.68;6.55;;;2.80;84.50;;;;;;4993836;28;20062;-76
2024/01/21 01:57:47;;;;;;;11.18;5.78;;;2.80;84.40;;;;;;4995352;28;20490;-76
2024/01/21 02:00:14;;;;;;;10.85;6.57;;;2.70;84.20;;;;;;4994853;28;20026;-75
2024/01/21 02:02:42;;;;;;;10.70;6.13;;;2.60;84.80;;;;;;4993487;28;20031;-76
2024/01/21 02:05:08;;;;;;;11.93;6.63;;;2.50;84.40;;;;;;4977653;28;20031;-76
2024/01/21 02:07:34;;;;;;;11.15;6.10;;;2.40;84.70;;;;;;4977384;28;20391;-76
2024/01/21 02:10:01;;;;;;;12.23;6.32;;;2.40;85.00;;;;;;4994772;28;20030;-75
2024/01/21 02:12:27;;;;;;;11.18;6.72;;;2.40;85.10;;;;;;4994408;28;20058;-75
2024/01/21 02:14:53;;;;;;;10.02;6.57;;;2.30;85.20;;;;;;4992879;28;20046;-75
2024/01/21 02:17:19;;;;;;;11.35;6.65;;;2.20;85.10;;;;;;4993934;28;20045;-75
2024/01/21 02:19:45;;;;;;;13.45;6.40;;;2.20;85.80;;;;;;4994857;28;20057;-75
2024/01/21 02:22:12;;;;;;;11.25;6.20;;;2.10;85.90;;;;;;4994764;28;20018;-74
2024/01/21 02:24:38;;;;;;;12.80;6.63;;;2.20;86.10;;;;;;4977905;28;20030;-75
2024/01/21 02:27:04;;;;;;;11.10;6.40;;;2.20;86.20;;;;;;4977267;28;20553;-76
2024/01/21 02:29:30;;;;;;;11.77;6.15;;;2.20;86.30;;;;;;4994506;28;20034;-75
2024/01/21 02:31:57;;;;;;;11.20;6.50;;;2.20;86.20;;;;;;4993118;28;20030;-75
2024/01/21 02:34:23;;;;;;;9.45;6.00;;;2.20;86.50;;;;;;4993151;28;20032;-75
2024/01/21 02:36:49;;;;;;;12.40;6.13;;;2.20;86.20;;;;;;4977629;28;20034;-75
2024/01/21 02:39:15;;;;;;;10.80;6.28;;;2.20;86.20;;;;;;4976937;28;20094;-75
2024/01/21 02:41:40;;;;;;;11.23;6.72;;;2.20;86.30;;;;;;4976827;28;20125;-76
2024/01/21 02:44:06;;;;;;;12.30;6.82;;;2.20;86.20;;;;;;4994215;28;20030;-75
2024/01/21 02:46:32;;;;;;;11.73;5.75;;;2.20;86.20;;;;;;4992888;28;20549;-75
2024/01/21 02:48:57;;;;;;;13.07;6.70;;;2.20;86.10;;;;;;4992945;28;20035;-75
2024/01/21 02:51:23;;;;;;;11.45;5.95;;;2.10;86.00;;;;;;4976818;28;20383;-75
2024/01/21 02:53:49;;;;;;;11.05;6.20;;;2.00;86.40;;;;;;4976446;28;20125;-75
2024/01/21 02:56:26;;;;;;;9.43;5.82;;;2.00;86.60;;;;;;4993856;28;20026;-75
2024/01/21 02:58:52;;;;;;;10.43;5.78;;;2.10;86.60;;;;;;4992879;28;20475;-75
2024/01/21 03:01:19;;;;;;;12.48;6.22;;;2.10;86.60;;;;;;4977593;28;20382;-75
2024/01/21 03:03:45;;;;;;;9.63;6.03;;;2.20;86.40;;;;;;4994474;28;20034;-76
2024/01/21 03:06:11;;;;;;;10.10;6.13;;;2.10;86.20;;;;;;4998423;28;20030;-75
2024/01/21 03:08:37;;;;;;;9.73;5.65;;;2.10;86.40;;;;;;4981300;28;20030;-76
2024/01/21 03:11:03;;;;;;;9.40;5.75;;;2.10;86.50;;;;;;4980594;28;20407;-76
2024/01/21 03:13:29;;;;;;;10.32;5.97;;;2.10;86.00;;;;;;4997968;28;20152;-75
2024/01/21 03:15:55;;;;;;;10.15;5.78;;;2.20;86.00;;;;;;5010422;28;20514;-75
2024/01/21 03:18:21;;;;;;;9.93;5.50;;;2.20;86.30;;;;;;5000226;28;20041;-75
2024/01/21 03:20:47;;;;;;;8.48;5.25;;;2.20;86.10;;;;;;5017182;28;20029;-75
2024/01/21 03:23:13;;;;;;;8.98;5.45;;;2.20;86.30;;;;;;5000231;28;20030;-75
2024/01/21 03:25:39;;;;;;;8.27;4.57;;;2.20;86.10;;;;;;4999891;28;20034;-75
2024/01/21 03:28:05;;;;;;;10.40;5.38;;;2.20;85.80;;;;;;4984154;28;20493;-76
2024/01/21 03:30:30;;;;;;;8.07;5.15;;;2.20;85.80;;;;;;4999895;28;20117;-76
2024/01/21 03:32:56;;;;;;;11.68;5.15;;;2.20;86.00;;;;;;4984182;28;20439;-76
2024/01/21 03:35:22;;;;;;;8.27;4.70;;;2.20;85.80;;;;;;4999718;28;20109;-75
2024/01/21 03:37:48;;;;;;;9.15;4.90;;;2.20;85.40;;;;;;5016869;28;20033;-75
2024/01/21 03:40:14;;;;;;;10.88;5.25;;;2.10;85.30;;;;;;4999545;28;20088;-75
2024/01/21 03:42:39;;;;;;;9.57;5.20;;;2.10;86.00;;;;;;4999184;28;20422;-75
2024/01/21 03:45:05;;;;;;;8.40;4.50;;;2.20;85.40;;;;;;4983751;28;20037;-75
2024/01/21 03:47:31;;;;;;;7.72;4.15;;;2.30;85.40;;;;;;4999380;28;20069;-75
2024/01/21 03:49:57;;;;;;;9.45;4.93;;;2.30;85.20;;;;;;4999526;28;20076;-75
2024/01/21 03:52:23;;;;;;;9.93;4.75;;;2.30;85.00;;;;;;4999452;28;20026;-75
2024/01/21 03:54:48;;;;;;;8.00;4.68;;;2.40;84.90;;;;;;5016935;28;20037;-75
2024/01/21 03:57:14;;;;;;;6.65;4.22;;;2.40;84.70;;;;;;4983166;28;20475;-75
2024/01/21 03:59:40;;;;;;;8.52;4.15;;;2.30;84.00;;;;;;5016442;28;20026;-76
2024/01/21 04:02:06;;;;;;;9.50;4.35;;;2.30;84.10;;;;;;4999105;28;20363;-75
2024/01/21 04:04:31;;;;;;;7.75;3.97;;;2.30;84.40;;;;;;4983144;28;20036;-75
2024/01/21 04:06:57;;;;;;;9.05;4.65;;;2.30;84.50;;;;;;4982762;28;20443;-75
2024/01/21 04:09:23;;;;;;;9.68;4.63;;;2.30;84.70;;;;;;4998849;28;20100;-75
2024/01/21 04:11:52;;;;;;;8.80;4.28;;;2.30;84.10;;;;;;4998905;28;20026;-75
2024/01/21 04:14:18;;;;;;;5.32;3.40;;;2.30;84.20;;;;;;4998882;28;20494;-76
2024/01/21 04:16:44;;;;;;;6.57;3.50;;;2.30;84.20;;;;;;5017031;28;20054;-75
2024/01/21 04:19:09;;;;;;;8.45;4.20;;;2.30;84.00;;;;;;5016330;28;20030;-76
2024/01/21 04:21:36;;;;;;;8.05;3.88;;;2.30;84.00;;;;;;4998471;28;20033;-75
2024/01/21 04:24:02;;;;;;;7.85;4.10;;;2.30;83.70;;;;;;5016374;28;20021;-74
2024/01/21 04:26:29;;;;;;;5.72;3.42;;;2.30;83.70;;;;;;5016135;28;20490;-76
2024/01/21 04:28:54;;;;;;;8.25;3.92;;;2.30;84.00;;;;;;4998593;28;20036;-75
2024/01/21 04:31:20;;;;;;;5.93;3.90;;;2.40;84.30;;;;;;4998416;28;20033;-75
2024/01/21 04:33:46;;;;;;;7.75;3.60;;;2.40;84.20;;;;;;4998636;28;20036;-75
2024/01/21 04:36:22;;;;;;;9.02;4.00;;;2.40;84.00;;;;;;4998620;28;20352;-75
2024/01/21 04:38:48;;;;;;;8.13;4.00;;;2.40;83.70;;;;;;4998429;28;20065;-75
2024/01/21 04:41:15;;;;;;;5.22;3.40;;;2.50;83.80;;;;;;4998103;28;20088;-75
2024/01/21 04:43:42;;;;;;;6.97;3.05;;;2.50;83.40;;;;;;4998301;28;20026;-75
2024/01/21 04:46:07;;;;;;;5.18;2.95;;;2.50;82.70;;;;;;4998478;28;20038;-75
2024/01/21 04:48:34;;;;;;;5.43;3.38;;;2.50;82.90;;;;;;4998072;28;20494;-76
2024/01/21 04:50:59;;;;;;;4.63;2.97;;;2.50;83.20;;;;;;4998135;28;20080;-75
2024/01/21 04:53:25;;;;;;;5.45;3.38;;;2.50;83.10;;;;;;4981846;28;20429;-74
2024/01/21 04:55:51;;;;;;;7.13;3.40;;;2.50;82.80;;;;;;4998016;28;20030;-75
2024/01/21 04:58:16;;;;;;;6.85;3.70;;;2.60;82.70;;;;;;4998209;28;20184;-75
2024/01/21 05:00:42;;;;;;;5.57;3.28;;;2.50;82.60;;;;;;5015237;28;20356;-75
2024/01/21 05:03:08;;;;;;;4.90;2.92;;;2.50;83.40;;;;;;5015133;28;20489;-75
2024/01/21 05:05:34;;;;;;;5.93;3.22;;;2.50;82.90;;;;;;4997814;28;20037;-76
2024/01/21 05:08:00;;;;;;;6.18;3.05;;;2.50;82.80;;;;;;5015048;28;20030;-75
2024/01/21 05:10:26;;;;;;;6.47;3.60;;;2.60;82.90;;;;;;4981407;28;20368;-76
2024/01/21 05:12:51;;;;;;;5.88;3.25;;;2.60;82.40;;;;;;5015038;28;20113;-75
2024/01/21 05:15:17;;;;;;;4.40;2.97;;;2.60;82.50;;;;;;5015160;28;20374;-75
2024/01/21 05:17:42;;;;;;;6.68;3.80;;;2.60;82.30;;;;;;5014921;28;20038;-75
2024/01/21 05:20:09;;;;;;;5.60;3.10;;;2.60;82.60;;;;;;5015225;28;20410;-75
2024/01/21 05:22:35;;;;;;;6.22;3.42;;;2.60;82.80;;;;;;4997513;28;20085;-75
2024/01/21 05:25:03;;;;;;;6.15;2.97;;;2.60;82.50;;;;;;4997402;28;20022;-75
2024/01/21 05:27:29;;;;;;;7.72;3.17;;;2.70;82.40;;;;;;4996745;28;20038;-75
2024/01/21 05:29:55;;;;;;;6.60;3.45;;;2.60;82.70;;;;;;4997163;28;20084;-74
2024/01/21 05:32:21;;;;;;;6.30;3.10;;;2.60;82.60;;;;;;5014696;28;20038;-75
2024/01/21 05:34:46;;;;;;;6.10;3.25;;;2.70;82.10;;;;;;4980860;28;20085;-75
2024/01/21 05:37:12;;;;;;;5.38;2.85;;;2.70;82.30;;;;;;5014838;28;20084;-75
2024/01/21 05:39:38;;;;;;;6.18;3.35;;;2.70;82.40;;;;;;5014537;28;20454;-75
2024/01/21 05:42:07;;;;;;;12.15;3.42;;;2.70;81.40;;;;;;4981181;28;20034;-75
2024/01/21 05:44:33;;;;;;;6.50;3.10;;;2.70;82.30;;;;;;4997521;28;20033;-76
2024/01/21 05:46:59;;;;;;;5.75;2.97;;;2.70;82.50;;;;;;4980713;28;20030;-75
2024/01/21 05:49:26;;;;;;;6.47;3.08;;;2.70;81.90;;;;;;4997254;28;20033;-75
2024/01/21 05:51:51;;;;;;;7.50;3.20;;;2.70;82.30;;;;;;4996945;28;20467;-75
2024/01/21 05:54:18;;;;;;;4.35;2.72;;;2.70;82.30;;;;;;5014531;28;20054;-75
2024/01/21 05:56:44;;;;;;;5.75;3.20;;;2.70;82.60;;;;;;4997366;28;20124;-75
2024/01/21 05:59:12;;;;;;;7.55;3.38;;;2.70;82.20;;;;;;5014462;28;20517;-75
2024/01/21 06:01:39;;;;;;;4.75;2.67;;;2.70;82.50;;;;;;4996798;28;20518;-75
2024/01/21 06:04:05;;;;;;;5.90;3.63;;;2.70;82.30;;;;;;4996761;28;20045;-75
2024/01/21 06:06:30;;;;;;;5.68;3.45;;;2.60;82.20;;;;;;4996743;28;20026;-74
2024/01/21 06:08:56;;;;;;;6.20;3.60;;;2.70;82.60;;;;;;4997047;28;20033;-75
2024/01/21 06:11:21;;;;;;;5.05;3.25;;;2.70;83.20;;;;;;5014183;28;20026;-75
2024/01/21 06:13:47;;;;;;;6.63;3.20;;;2.60;83.10;;;;;;4996586;28;20030;-75
2024/01/21 06:16:17;;;;;;;5.93;3.20;;;2.60;83.10;;;;;;5014420;28;20054;-75
2024/01/21 06:18:42;;;;;;;6.50;3.10;;;2.60;83.10;;;;;;4996745;28;20382;-75
2024/01/21 06:21:08;;;;;;;7.32;3.13;;;2.60;83.20;;;;;;4996619;28;20034;-75
2024/01/21 06:23:34;;;;;;;7.82;3.42;;;2.70;83.30;;;;;;4996646;28;20483;-75
2024/01/21 06:25:59;;;;;;;6.55;3.53;;;2.60;83.60;;;;;;5014539;28;20034;-74
2024/01/21 06:28:25;;;;;;;6.78;3.65;;;2.60;83.90;;;;;;4980272;28;20132;-74
2024/01/21 06:30:51;;;;;;;8.05;3.72;;;2.70;84.10;;;;;;5013697;28;20109;-75
2024/01/21 06:33:17;;;;;;;5.30;3.35;;;2.70;84.40;;;;;;5013914;28;20042;-75
2024/01/21 06:35:42;;;;;;;9.00;3.55;;;2.70;84.20;;;;;;4996233;28;20022;-76
2024/01/21 06:38:08;;;;;;;6.75;3.88;;;2.70;84.60;;;;;;4979298;28;20041;-75
2024/01/21 06:40:34;;;;;;;7.68;3.88;;;2.70;85.20;;;;;;4980800;28;20034;-73
2024/01/21 06:42:59;;;;;;;9.00;3.83;;;2.70;85.20;;;;;;5014100;28;20076;-73
2024/01/21 06:45:26;;;;;;;7.85;4.03;;;2.70;85.30;;;;;;4996119;28;20034;-73
2024/01/21 06:47:51;;;;;;;6.85;3.97;;;2.60;85.20;;;;;;5013910;28;20124;-73
2024/01/21 06:50:17;;;;;;;11.07;5.93;;;2.60;85.60;;;;;;5014026;28;20077;-73
2024/01/21 06:52:43;;;;;;;6.32;4.10;;;2.60;85.60;;;;;;4980007;28;20109;-73
2024/01/21 06:55:09;;;;;;;7.30;4.22;;;2.60;85.60;;;;;;4996329;28;20545;-73
2024/01/21 06:57:34;;;;;;;8.73;4.20;;;2.70;85.40;;;;;;4995991;28;20045;-73
2024/01/21 07:00:02;;;;;;;7.20;4.25;;;2.70;85.30;;;;;;4995961;28;20034;-74
2024/01/21 07:02:27;;;;;;;7.65;4.68;;;2.70;85.70;;;;;;5013668;28;20053;-74
2024/01/21 07:04:53;;;;;;;7.18;2.72;;;2.70;86.30;;;;;;4996639;28;20084;-81
2024/01/21 07:07:18;;;;;;;8.60;4.65;;;2.80;90.30;;;;;;4964723;28;20092;-73
2024/01/21 07:09:44;;;;;;;5.80;3.20;;;3.80;93.00;;;;;;5013730;28;20422;-82
2024/01/21 07:12:10;;;;;;;8.13;4.40;;;4.20;90.50;;;;;;4979895;28;20034;-82
2024/01/21 07:14:35;;;;;;;8.70;4.65;;;4.20;86.10;;;;;;4996019;28;20095;-82
2024/01/21 07:17:03;;;;;;;8.55;4.72;;;4.10;85.20;;;;;;4996433;28;20060;-78
2024/01/21 07:19:29;;;;;;;6.97;4.53;;;3.90;84.30;;;;;;4996673;28;20080;-78
2024/01/21 07:21:54;;;;;;;7.18;4.35;;;3.70;83.80;;;;;;4980067;28;20037;-78
2024/01/21 07:24:20;;;;;;;10.23;4.85;;;3.60;83.40;;;;;;4997197;28;20069;-80
2024/01/21 07:26:46;;;;;;;8.73;5.57;;;3.50;84.00;;;;;;4979397;28;20057;-75
2024/01/21 07:29:13;;;;;;;7.88;4.78;;;3.40;84.10;;;;;;5013323;28;20087;-75
2024/01/21 07:31:39;;;;;;;9.27;4.90;;;3.30;84.80;;;;;;4995953;28;20038;-75
2024/01/21 07:34:09;;;;;;;10.90;4.85;;;3.30;85.10;;;;;;5012994;28;20037;-75
2024/01/21 07:36:35;;;;;;;8.02;5.30;;;3.30;84.70;;;;;;5013272;28;20038;-75
2024/01/21 07:39:04;;;;;;;7.80;4.35;;;3.20;84.70;;;;;;5013114;28;20061;-75
2024/01/21 07:41:30;;;;;;;7.85;4.57;;;3.20;85.00;;;;;;4995723;28;20041;-74
2024/01/21 07:43:56;;;;;;;7.75;4.13;;;3.20;84.10;;;;;;4995577;28;20520;-74
2024/01/21 07:46:21;;;;;;;7.78;4.03;;;3.20;83.70;;;;;;4996061;28;20045;-74
2024/01/21 07:48:47;;;;;;;7.93;4.47;;;3.20;83.60;;;;;;5013824;28;20348;-77
2024/01/21 07:51:15;;;;;;;6.65;4.45;;;3.30;83.50;;;;;;4999905;28;20479;-78
2024/01/21 07:53:41;;;;;;;9.45;5.38;;;3.30;83.70;;;;;;4983379;28;20034;-79
2024/01/21 07:56:06;;;;;;;10.20;5.00;;;3.30;83.40;;;;;;4982748;28;20130;-75
2024/01/21 07:58:32;;;;;;;7.75;4.75;;;3.30;82.20;;;;;;4999592;28;20092;-74
2024/01/21 08:00:58;;;;;;;6.72;4.10;;;3.30;82.40;;;;;;5017069;28;20049;-81
2024/01/21 08:03:23;;;;;;;7.63;4.75;;;3.30;82.40;;;;;;4999414;28;20117;-76
2024/01/21 08:05:49;;;;;;;7.80;4.80;;;3.20;82.30;;;;;;4999145;28;20073;-73
2024/01/21 08:08:15;;;;;;;9.88;4.68;;;3.30;82.40;;;;;;4999150;28;20069;-73
2024/01/21 08:10:40;;;;;;;8.02;4.70;;;3.30;82.20;;;;;;5000733;28;20030;-81
2024/01/21 08:13:06;;;;;;;9.45;4.47;;;3.30;82.40;;;;;;5005144;28;20034;-81
2024/01/21 08:15:32;;;;;;;8.32;4.32;;;3.30;82.70;;;;;;4983584;28;20095;-82
2024/01/21 08:17:59;;;;;;;6.68;4.07;;;3.30;82.30;;;;;;4982877;28;20371;-82
2024/01/21 08:20:25;;;;;;;13.77;5.82;;;3.40;82.20;;;;;;4982777;28;20044;-81
2024/01/21 08:22:51;;;;;;;7.13;4.50;;;3.40;82.70;;;;;;5016222;28;20109;-79
2024/01/21 08:25:16;;;;;;;11.30;5.10;;;3.50;83.10;;;;;;4998663;28;20122;-74
2024/01/21 08:27:42;;;;;;;8.45;4.40;;;3.50;83.40;;;;;;4982440;28;20034;-75
2024/01/21 08:30:08;;;;;;;8.35;4.40;;;3.50;83.40;;;;;;4998435;28;20030;-74
2024/01/21 08:32:34;;;;;;;7.57;4.07;;;3.50;82.70;;;;;;5016522;28;20358;-73
2024/01/21 08:35:00;;;;;;;8.02;4.40;;;3.60;83.20;;;;;;5016170;28;20113;-74
2024/01/21 08:37:26;;;;;;;8.30;4.57;;;3.60;82.80;;;;;;5016006;28;20510;-73
2024/01/21 08:39:51;;;;;;;6.68;4.25;;;3.60;83.30;;;;;;5016057;28;20060;-72
2024/01/21 08:42:19;;;;;;;8.20;4.65;;;3.60;83.00;;;;;;4998086;28;20052;-74
2024/01/21 08:44:45;;;;;;;8.82;5.20;;;3.60;82.90;;;;;;4999046;28;20089;-73
2024/01/21 08:47:10;;;;;;;8.27;3.88;;;3.60;83.20;;;;;;4998132;28;20030;-74
2024/01/21 08:49:36;;;;;;;9.93;4.85;;;3.70;83.40;;;;;;5015625;28;20105;-73
2024/01/21 08:52:02;;;;;;;9.68;3.97;;;3.70;83.50;;;;;;4999057;28;20021;-73
2024/01/21 08:54:27;;;;;;;8.55;4.78;;;3.70;83.30;;;;;;5016124;28;20022;-74
2024/01/21 08:56:53;;;;;;;7.65;4.35;;;3.70;83.50;;;;;;5015721;28;20098;-74
2024/01/21 08:59:19;;;;;;;9.90;4.22;;;3.70;84.00;;;;;;5016007;28;20021;-73
2024/01/21 09:01:45;;;;;;;8.27;4.47;;;3.70;84.00;;;;;;5014644;28;20069;-73
2024/01/21 09:04:11;;;;;;;8.15;3.75;;;3.80;84.30;;;;;;5015323;28;20026;-73
2024/01/21 09:06:41;;;;;;;8.88;4.68;;;3.80;84.60;;;;;;4998172;28;20034;-73
2024/01/21 09:09:12;;;;;;;7.10;4.10;;;3.80;84.30;;;;;;5015808;28;20030;-74
2024/01/21 09:11:39;;;;;;;7.97;4.18;;;3.80;84.50;;;;;;4998749;28;20030;-73
2024/01/21 09:14:05;;;;;;;7.47;4.65;;;3.90;84.90;;;;;;5015728;28;20176;-73
2024/01/21 09:16:32;;;;;;;6.97;4.00;;;3.90;84.90;;;;;;4998109;28;20129;-76
2024/01/21 09:18:58;;;;;;;9.52;4.53;;;3.90;85.00;;;;;;5015931;28;20030;-77
2024/01/21 09:21:24;;;;;;;6.88;4.22;;;4.00;85.00;;;;;;5015208;28;20549;-74
2024/01/21 09:23:51;;;;;;;8.23;4.65;;;4.00;85.20;;;;;;5015808;28;20030;-76
2024/01/21 09:26:17;;;;;;;8.68;4.20;;;4.00;86.10;;;;;;5015209;28;20037;-77
2024/01/21 09:28:43;;;;;;;9.68;4.78;;;4.00;86.80;;;;;;4997574;28;20033;-76
2024/01/21 09:31:09;;;;;;;7.32;4.45;;;4.10;86.60;;;;;;4997251;28;20084;-77
2024/01/21 09:33:36;;;;;;;11.20;4.78;;;4.10;86.80;;;;;;5015413;28;20038;-76
2024/01/21 09:36:02;;;;;;;8.90;4.22;;;4.10;87.10;;;;;;5015019;28;20034;-76
2024/01/21 09:38:27;;;;;;;10.27;4.70;;;4.10;87.70;;;;;;4997300;28;20064;-78
2024/01/21 09:41:01;;;;;;;13.77;5.30;;;4.10;88.10;;;;;;4997930;28;20403;-74
2024/01/21 09:43:29;;;;;;;10.00;5.05;;;4.10;88.60;;;;;;4998327;28;20040;-74
2024/01/21 09:45:57;;;;;;;7.43;4.68;;;4.20;89.00;;;;;;5015011;28;20092;-74
2024/01/21 09:48:23;;;;;;;7.20;4.13;;;4.20;89.00;;;;;;5014687;28;20048;-73
2024/01/21 09:50:51;;;;;;;9.40;4.80;;;4.20;89.20;;;;;;5014789;28;20073;-74
2024/01/21 09:53:17;;;;;;;7.93;4.30;;;4.10;90.20;;;;;;4996996;28;20026;-74
2024/01/21 09:55:42;;;;;;;7.90;4.90;;;4.20;90.20;;;;;;5014336;28;20470;-73
2024/01/21 09:58:13;;;;;;;9.18;4.15;;;4.20;90.40;;;;;;4996838;28;20048;-74
2024/01/21 10:00:39;;;;;;;7.80;3.90;;;4.20;90.50;;;;;;5014620;28;20037;-74
2024/01/21 10:03:05;;;;;;;11.57;4.45;;;4.30;90.80;;;;;;5014475;28;20049;-74
2024/01/21 10:05:30;;;;;;;6.70;4.30;;;4.20;90.90;;;;;;5014538;28;20030;-75
2024/01/21 10:07:56;;;;;;;8.25;4.35;;;4.30;91.50;;;;;;4996820;28;20038;-74
2024/01/21 10:10:23;;;;;;;6.57;4.30;;;4.30;91.90;;;;;;5014244;28;20045;-73
2024/01/21 10:12:49;;;;;;;7.60;4.50;;;4.30;92.20;;;;;;4996439;28;20037;-73
2024/01/21 10:15:15;;;;;;;8.15;4.35;;;4.30;92.50;;;;;;4996302;28;20054;-74
2024/01/21 10:17:41;;;;;;;8.82;4.18;;;4.30;92.80;;;;;;5014778;28;20171;-74
2024/01/21 10:20:11;;;;;;;10.60;4.30;;;4.30;92.90;;;;;;5013982;28;20108;-74
2024/01/21 10:22:37;;;;;;;8.23;4.22;;;4.30;92.80;;;;;;4980504;28;20030;-74
2024/01/21 10:25:03;;;;;;;7.97;4.57;;;4.30;93.10;;;;;;4996679;28;20026;-73
2024/01/21 10:27:29;;;;;;;10.00;4.88;;;4.40;93.50;;;;;;4996296;28;20034;-74
2024/01/21 10:29:56;;;;;;;10.95;5.57;;;4.40;93.80;;;;;;5014203;28;20041;-78
2024/01/21 10:32:22;;;;;;;7.70;4.25;;;4.40;94.10;;;;;;5013845;28;20045;-78
2024/01/21 10:34:51;;;;;;;10.65;4.05;;;4.40;94.50;;;;;;4996240;28;20478;-80
2024/01/21 10:37:17;;;;;;;8.88;4.53;;;4.40;94.70;;;;;;4996901;28;20233;-79
2024/01/21 10:39:49;;;;;;;7.45;4.53;;;4.40;94.90;;;;;;5013907;28;20080;-79
2024/01/21 10:42:15;;;;;;;8.32;5.00;;;4.50;95.30;;;;;;5013986;28;20038;-79
2024/01/21 10:44:43;;;;;;;7.22;4.45;;;4.50;95.50;;;;;;5013994;28;20032;-79
2024/01/21 10:47:09;;;;;;;9.38;4.50;;;4.50;95.70;;;;;;4980196;28;20077;-78
2024/01/21 10:49:35;;;;;;;7.25;4.50;;;4.50;96.20;;;;;;5013553;28;20112;-79
2024/01/21 10:52:01;;;;;;;8.75;4.60;;;4.50;96.80;;;;;;4997138;28;20036;-79
2024/01/21 10:54:28;;;;;;;6.93;4.68;;;4.50;97.20;;;;;;4996231;28;20424;-76
2024/01/21 10:56:54;;;;;;;9.57;4.75;;;4.50;97.50;;;;;;5014127;28;20026;-74
2024/01/21 10:59:21;;;;;;;6.65;4.38;;;4.50;97.90;;;;;;5013529;28;20034;-74
2024/01/21 11:01:48;;;;;;;9.48;4.88;;;4.60;98.30;;;;;;4996421;28;20034;-75
2024/01/21 11:04:14;;;;;;;8.38;4.93;;;4.60;98.50;;;;;;5014046;28;20030;-73
2024/01/21 11:06:42;;;;;;;8.75;4.28;;;4.60;99.00;;;;;;5013811;28;20030;-74
2024/01/21 11:09:08;;;;;;;9.57;4.53;;;4.60;99.60;;;;;;5013868;28;20069;-75
2024/01/21 11:11:44;;;;;;;7.97;4.40;;;4.60;99.90;;;;;;5013872;28;20367;-74
2024/01/21 11:14:35;;;;;;;9.63;4.60;;;4.60;99.90;;;;;;5013539;28;20092;-74
2024/01/21 11:17:03;;;;;;;9.07;5.78;;;4.60;99.90;;;;;;5013837;28;20381;-74
2024/01/21 11:19:53;;;;;;;9.55;5.43;;;4.60;99.90;;;;;;5013445;28;20025;-74
2024/01/21 11:22:25;;;;;;;9.02;4.78;;;4.70;99.90;;;;;;5013854;28;20080;-74
2024/01/21 11:24:53;;;;;;;8.85;5.10;;;4.70;99.90;;;;;;4998571;28;20045;-80
2024/01/21 11:27:33;;;;;;;9.73;5.40;;;4.80;99.90;;;;;;5017221;28;20157;-80
2024/01/21 11:30:01;;;;;;;10.73;5.25;;;4.80;99.90;;;;;;5017374;28;20140;-79
2024/01/21 11:32:28;;;;;;;10.05;5.05;;;4.80;99.90;;;;;;4984140;28;20068;-79
2024/01/21 11:34:55;;;;;;;8.50;4.90;;;4.80;99.90;;;;;;5017363;28;20057;-80
2024/01/21 11:37:22;;;;;;;8.55;4.65;;;4.80;99.90;;;;;;4983397;28;20034;-79
2024/01/21 11:39:49;;;;;;;8.10;4.82;;;4.80;99.90;;;;;;5000047;28;20374;-80
2024/01/21 11:42:15;;;;;;;8.35;5.38;;;4.80;99.90;;;;;;4999824;28;20030;-79
2024/01/21 11:44:41;;;;;;;9.48;5.00;;;4.90;99.90;;;;;;4999398;28;20033;-79
2024/01/21 11:47:07;;;;;;;8.32;5.00;;;4.80;99.90;;;;;;4999424;28;20030;-81
2024/01/21 11:49:35;;;;;;;10.23;4.60;;;4.80;99.90;;;;;;5017029;28;20030;-79
2024/01/21 11:52:05;;;;;;;9.52;4.82;;;4.90;99.90;;;;;;5016968;28;20382;-79
2024/01/21 11:54:32;;;;;;;8.98;5.57;;;4.90;99.90;;;;;;4999232;28;20034;-79
2024/01/21 11:56:58;;;;;;;10.45;5.15;;;4.90;99.90;;;;;;4999005;28;20037;-79
2024/01/21 11:59:25;;;;;;;9.27;5.35;;;4.90;99.90;;;;;;4983250;28;20525;-79
2024/01/21 12:01:56;;;;;;;8.27;5.57;;;4.90;99.90;;;;;;4982858;28;20089;-79
2024/01/21 12:04:24;;;;;;;11.57;6.30;;;4.90;99.90;;;;;;5016860;28;20069;-78
2024/01/21 12:06:51;;;;;;;10.05;5.70;;;4.90;99.90;;;;;;5016924;28;20034;-78
2024/01/21 12:09:17;;;;;;;8.15;5.53;;;5.00;99.90;;;;;;4998915;28;20034;-79
2024/01/21 12:11:43;;;;;;;10.70;5.28;;;5.00;99.90;;;;;;5017157;28;20033;-79
2024/01/21 12:14:13;;;;;;;7.13;4.78;;;5.00;99.90;;;;;;5016639;28;20083;-79
2024/01/21 12:16:39;;;;;;;8.95;4.63;;;5.00;99.90;;;;;;4998675;28;20056;-78
2024/01/21 12:19:05;;;;;;;9.32;4.65;;;5.00;99.90;;;;;;4998833;28;20545;-79
2024/01/21 12:21:32;;;;;;;8.40;5.18;;;5.10;99.90;;;;;;5016248;28;20479;-79
2024/01/21 12:23:59;;;;;;;8.50;5.15;;;5.10;99.90;;;;;;4998843;28;20034;-79
2024/01/21 12:26:25;;;;;;;9.35;6.30;;;5.20;99.90;;;;;;5016477;28;20127;-79
2024/01/21 12:28:54;;;;;;;9.27;6.15;;;5.20;99.90;;;;;;5016250;28;20034;-78
2024/01/21 12:31:20;;;;;;;8.23;5.47;;;5.20;99.90;;;;;;5015948;28;20461;-78
2024/01/21 12:33:47;;;;;;;8.32;5.60;;;5.20;99.90;;;;;;5015849;28;20502;-78
2024/01/21 12:36:14;;;;;;;8.63;5.10;;;5.20;99.90;;;;;;5016208;28;20041;-79
2024/01/21 12:38:41;;;;;;;10.25;5.32;;;5.20;99.90;;;;;;4998457;28;20391;-78
2024/01/21 12:41:07;;;;;;;12.65;5.35;;;5.20;99.90;;;;;;4982280;28;20146;-79
2024/01/21 12:43:33;;;;;;;12.57;6.00;;;5.20;99.90;;;;;;5015993;28;20448;-79
2024/01/21 12:45:59;;;;;;;10.93;6.38;;;5.20;99.90;;;;;;4982814;28;20601;-80
2024/01/21 12:48:25;;;;;;;10.77;5.63;;;5.20;99.90;;;;;;4998539;28;20065;-79